createdAt,value
2017-07-25T00:00:09.160Z,999.71
2017-07-25T00:01:09.136Z,999.71
2017-07-25T00:02:09.114Z,999.77
2017-07-25T00:03:09.093Z,999.75
2017-07-25T00:04:09.069Z,999.73
2017-07-25T00:05:09.048Z,999.76
2017-07-25T00:06:09.025Z,999.77
2017-07-25T00:07:09.002Z,999.75
2017-07-25T00:08:08.980Z,999.77
2017-07-25T00:09:08.956Z,999.75
2017-07-25T00:10:08.935Z,999.71
2017-07-25T00:11:08.912Z,999.69
2017-07-25T00:12:08.889Z,999.66
2017-07-25T00:13:08.868Z,999.65
2017-07-25T00:14:08.844Z,999.61
2017-07-25T00:15:08.822Z,999.64
2017-07-25T00:16:08.799Z,999.62
2017-07-25T00:17:08.776Z,999.59
2017-07-25T00:18:08.753Z,999.58
2017-07-25T00:19:08.731Z,999.58
2017-07-25T00:20:08.709Z,999.56
2017-07-25T00:21:08.687Z,999.56
2017-07-25T00:22:08.663Z,999.52
2017-07-25T00:23:08.640Z,999.54
2017-07-25T00:24:08.619Z,999.53
2017-07-25T00:25:08.597Z,999.56
2017-07-25T00:26:08.573Z,999.52
2017-07-25T00:27:08.551Z,999.56
2017-07-25T00:28:08.528Z,999.55
2017-07-25T00:29:08.504Z,999.53
2017-07-25T00:30:08.482Z,999.54
2017-07-25T00:31:08.461Z,999.52
2017-07-25T00:32:08.437Z,999.49
2017-07-25T00:33:08.414Z,999.48
2017-07-25T00:34:08.391Z,999.49
2017-07-25T00:35:08.374Z,999.51
2017-07-25T00:36:08.347Z,999.47
2017-07-25T00:37:08.325Z,999.45
2017-07-25T00:38:08.301Z,999.51
2017-07-25T00:39:08.279Z,999.54
2017-07-25T00:40:08.255Z,999.5
2017-07-25T00:41:08.234Z,999.48
2017-07-25T00:42:08.210Z,999.53
2017-07-25T00:43:08.188Z,999.48
2017-07-25T00:44:08.165Z,999.51
2017-07-25T00:45:08.142Z,999.47
2017-07-25T00:46:08.120Z,999.48
2017-07-25T00:47:08.098Z,999.45
2017-07-25T00:48:08.074Z,999.43
2017-07-25T00:49:08.053Z,999.43
2017-07-25T00:50:08.029Z,999.43
2017-07-25T00:51:08.007Z,999.41
2017-07-25T00:52:07.983Z,999.48
2017-07-25T00:53:07.961Z,999.41
2017-07-25T00:54:07.938Z,999.41
2017-07-25T00:55:07.916Z,999.4
2017-07-25T00:56:07.891Z,999.44
2017-07-25T00:57:07.870Z,999.41
2017-07-25T00:58:07.849Z,999.46
2017-07-25T00:59:07.824Z,999.46
2017-07-25T01:00:07.802Z,999.46
2017-07-25T01:01:07.780Z,999.44
2017-07-25T01:02:07.756Z,999.43
2017-07-25T01:03:07.733Z,999.45
2017-07-25T01:04:07.710Z,999.46
2017-07-25T01:05:07.690Z,999.46
2017-07-25T01:06:07.666Z,999.43
2017-07-25T01:07:07.642Z,999.46
2017-07-25T01:08:07.620Z,999.43
2017-07-25T01:09:07.599Z,999.48
2017-07-25T01:10:07.580Z,999.44
2017-07-25T01:11:07.553Z,999.46
2017-07-25T01:12:07.529Z,999.43
2017-07-25T01:13:07.506Z,999.41
2017-07-25T01:14:07.485Z,999.43
2017-07-25T01:15:07.462Z,999.45
2017-07-25T01:16:07.439Z,999.44
2017-07-25T01:17:07.415Z,999.4
2017-07-25T01:18:07.393Z,999.43
2017-07-25T01:19:07.370Z,999.41
2017-07-25T01:20:07.349Z,999.38
2017-07-25T01:21:07.325Z,999.42
2017-07-25T01:22:07.303Z,999.41
2017-07-25T01:23:07.280Z,999.39
2017-07-25T01:24:07.256Z,999.43
2017-07-25T01:25:07.250Z,999.4
2017-07-25T01:26:07.211Z,999.37
2017-07-25T01:27:07.191Z,999.37
2017-07-25T01:28:07.167Z,999.33
2017-07-25T01:29:07.144Z,999.34
2017-07-25T01:30:07.122Z,999.35
2017-07-25T01:31:07.099Z,999.34
2017-07-25T01:32:07.077Z,999.35
2017-07-25T01:33:07.053Z,999.33
2017-07-25T01:34:07.031Z,999.27
2017-07-25T01:35:07.009Z,999.34
2017-07-25T01:36:06.985Z,999.29
2017-07-25T01:37:06.963Z,999.33
2017-07-25T01:38:06.940Z,999.36
2017-07-25T01:39:06.917Z,999.36
2017-07-25T01:40:06.895Z,999.37
2017-07-25T01:41:06.873Z,999.32
2017-07-25T01:42:06.850Z,999.33
2017-07-25T01:43:06.830Z,999.34
2017-07-25T01:44:06.804Z,999.34
2017-07-25T01:45:06.786Z,999.33
2017-07-25T01:46:06.760Z,999.33
2017-07-25T01:47:06.736Z,999.31
2017-07-25T01:48:06.714Z,999.3
2017-07-25T01:49:06.691Z,999.33
2017-07-25T01:50:06.668Z,999.3
2017-07-25T01:51:06.645Z,999.32
2017-07-25T01:52:06.624Z,999.28
2017-07-25T01:53:06.601Z,999.29
2017-07-25T01:54:06.580Z,999.28
2017-07-25T01:55:06.567Z,999.26
2017-07-25T01:56:06.534Z,999.26
2017-07-25T01:57:06.510Z,999.24
2017-07-25T01:58:06.488Z,999.23
2017-07-25T01:59:06.466Z,999.25
2017-07-25T02:00:06.442Z,999.26
2017-07-25T02:01:06.419Z,999.26
2017-07-25T02:02:06.398Z,999.3
2017-07-25T02:03:06.388Z,999.25
2017-07-25T02:04:06.350Z,999.27
2017-07-25T02:05:06.330Z,999.26
2017-07-25T02:06:06.304Z,999.25
2017-07-25T02:07:06.284Z,999.29
2017-07-25T02:08:06.263Z,999.25
2017-07-25T02:09:06.238Z,999.29
2017-07-25T02:10:06.216Z,999.3
2017-07-25T02:11:06.193Z,999.32
2017-07-25T02:12:06.168Z,999.35
2017-07-25T02:13:06.146Z,999.31
2017-07-25T02:14:06.123Z,999.28
2017-07-25T02:15:06.101Z,999.29
2017-07-25T02:16:06.078Z,999.28
2017-07-25T02:17:06.056Z,999.28
2017-07-25T02:18:06.033Z,999.28
2017-07-25T02:19:06.010Z,999.3
2017-07-25T02:20:05.987Z,999.3
2017-07-25T02:21:05.964Z,999.27
2017-07-25T02:22:05.943Z,999.32
2017-07-25T02:23:05.918Z,999.28
2017-07-25T02:24:05.894Z,999.34
2017-07-25T02:25:05.874Z,999.32
2017-07-25T02:26:05.849Z,999.3
2017-07-25T02:27:05.827Z,999.26
2017-07-25T02:28:05.809Z,999.32
2017-07-25T02:29:05.782Z,999.28
2017-07-25T02:30:05.758Z,999.24
2017-07-25T02:31:05.736Z,999.21
2017-07-25T02:32:05.713Z,999.16
2017-07-25T02:33:05.690Z,999.17
2017-07-25T02:34:05.667Z,999.21
2017-07-25T02:35:05.650Z,999.22
2017-07-25T02:36:05.621Z,999.24
2017-07-25T02:37:05.598Z,999.27
2017-07-25T02:38:05.576Z,999.29
2017-07-25T02:39:05.553Z,999.3
2017-07-25T02:40:05.531Z,999.33
2017-07-25T02:41:05.507Z,999.36
2017-07-25T02:42:05.484Z,999.29
2017-07-25T02:43:05.462Z,999.29
2017-07-25T02:44:05.440Z,999.31
2017-07-25T02:45:05.415Z,999.27
2017-07-25T02:46:05.391Z,999.29
2017-07-25T02:47:05.370Z,999.23
2017-07-25T02:48:05.353Z,999.23
2017-07-25T02:49:05.324Z,999.27
2017-07-25T02:50:05.301Z,999.22
2017-07-25T02:51:05.278Z,999.24
2017-07-25T02:52:05.255Z,999.26
2017-07-25T02:53:05.234Z,999.24
2017-07-25T02:54:05.209Z,999.26
2017-07-25T02:55:05.209Z,999.23
2017-07-25T02:56:05.162Z,999.19
2017-07-25T02:57:05.141Z,999.15
2017-07-25T02:58:05.116Z,999.14
2017-07-25T02:59:05.092Z,999.22
2017-07-25T03:00:05.070Z,999.13
2017-07-25T03:01:05.048Z,999.14
2017-07-25T03:02:05.025Z,999.15
2017-07-25T03:03:05.001Z,999.1
2017-07-25T03:04:04.980Z,999.13
2017-07-25T03:05:04.956Z,999.13
2017-07-25T03:06:04.933Z,999.13
2017-07-25T03:07:04.911Z,999.12
2017-07-25T03:08:04.887Z,999.14
2017-07-25T03:09:04.864Z,999.1
2017-07-25T03:10:04.846Z,999.08
2017-07-25T03:11:04.818Z,999.09
2017-07-25T03:12:04.796Z,999.08
2017-07-25T03:13:04.773Z,999.11
2017-07-25T03:14:04.748Z,999.1
2017-07-25T03:15:04.725Z,999.11
2017-07-25T03:16:04.703Z,999.09
2017-07-25T03:17:04.679Z,999.13
2017-07-25T03:18:04.655Z,999.1
2017-07-25T03:19:04.634Z,999.09
2017-07-25T03:20:04.610Z,999.06
2017-07-25T03:21:04.585Z,999.03
2017-07-25T03:22:04.564Z,999.07
2017-07-25T03:23:04.541Z,999.08
2017-07-25T03:24:04.520Z,999.08
2017-07-25T03:25:04.497Z,999.08
2017-07-25T03:26:04.472Z,999.09
2017-07-25T03:27:04.449Z,999.1
2017-07-25T03:28:04.427Z,999.1
2017-07-25T03:29:04.404Z,999.1
2017-07-25T03:30:04.381Z,999.11
2017-07-25T03:31:04.358Z,999.06
2017-07-25T03:32:04.333Z,999.05
2017-07-25T03:33:04.311Z,999.06
2017-07-25T03:34:04.287Z,999.04
2017-07-25T03:35:04.264Z,999
2017-07-25T03:36:04.240Z,999.01
2017-07-25T03:37:04.217Z,998.99
2017-07-25T03:38:04.200Z,998.99
2017-07-25T03:39:04.171Z,998.97
2017-07-25T03:40:04.149Z,998.97
2017-07-25T03:41:04.126Z,998.95
2017-07-25T03:42:04.103Z,998.96
2017-07-25T03:43:04.078Z,998.9
2017-07-25T03:44:04.055Z,998.95
2017-07-25T03:45:04.032Z,998.95
2017-07-25T03:46:04.010Z,998.94
2017-07-25T03:47:03.985Z,998.92
2017-07-25T03:48:03.962Z,998.94
2017-07-25T03:49:03.940Z,998.92
2017-07-25T03:50:03.916Z,998.88
2017-07-25T03:51:03.892Z,998.86
2017-07-25T03:52:03.869Z,998.9
2017-07-25T03:53:03.849Z,998.88
2017-07-25T03:54:03.823Z,998.86
2017-07-25T03:55:03.800Z,998.84
2017-07-25T03:56:03.776Z,998.83
2017-07-25T03:57:03.752Z,998.8
2017-07-25T03:58:03.729Z,998.82
2017-07-25T03:59:03.706Z,998.85
2017-07-25T04:00:03.683Z,998.87
2017-07-25T04:01:03.660Z,998.89
2017-07-25T04:02:03.637Z,998.88
2017-07-25T04:03:03.613Z,998.85
2017-07-25T04:04:03.591Z,998.85
2017-07-25T04:05:03.566Z,998.87
2017-07-25T04:06:03.544Z,998.8
2017-07-25T04:07:03.521Z,998.89
2017-07-25T04:08:03.497Z,998.84
2017-07-25T04:09:03.478Z,998.88
2017-07-25T04:10:03.451Z,998.86
2017-07-25T04:11:03.427Z,998.88
2017-07-25T04:12:03.404Z,998.86
2017-07-25T04:13:03.380Z,998.8
2017-07-25T04:14:03.358Z,998.82
2017-07-25T04:15:03.334Z,998.81
2017-07-25T04:16:03.311Z,998.84
2017-07-25T04:17:03.286Z,998.83
2017-07-25T04:18:03.264Z,998.82
2017-07-25T04:19:03.241Z,998.8
2017-07-25T04:20:03.218Z,998.8
2017-07-25T04:21:03.194Z,998.81
2017-07-25T04:22:03.170Z,998.86
2017-07-25T04:23:03.147Z,998.89
2017-07-25T04:24:03.124Z,998.84
2017-07-25T04:25:03.101Z,998.83
2017-07-25T04:26:03.078Z,998.85
2017-07-25T04:27:03.053Z,998.8
2017-07-25T04:28:03.030Z,998.79
2017-07-25T04:29:03.007Z,998.8
2017-07-25T04:30:02.983Z,998.75
2017-07-25T04:31:02.961Z,998.77
2017-07-25T04:32:02.938Z,998.77
2017-07-25T04:33:02.914Z,998.76
2017-07-25T04:34:02.889Z,998.72
2017-07-25T04:35:02.867Z,998.72
2017-07-25T04:36:02.843Z,998.76
2017-07-25T04:37:02.820Z,998.72
2017-07-25T04:38:02.796Z,998.69
2017-07-25T04:39:02.772Z,998.74
2017-07-25T04:40:02.751Z,998.71
2017-07-25T04:41:02.727Z,998.69
2017-07-25T04:42:02.704Z,998.7
2017-07-25T04:43:02.680Z,998.69
2017-07-25T04:44:02.661Z,998.65
2017-07-25T04:45:02.634Z,998.68
2017-07-25T04:46:02.611Z,998.68
2017-07-25T04:47:02.590Z,998.66
2017-07-25T04:48:02.565Z,998.64
2017-07-25T04:49:02.541Z,998.63
2017-07-25T04:50:02.518Z,998.61
2017-07-25T04:51:02.496Z,998.63
2017-07-25T04:52:02.472Z,998.6
2017-07-25T04:53:02.447Z,998.56
2017-07-25T04:54:02.426Z,998.56
2017-07-25T04:55:02.402Z,998.57
2017-07-25T04:56:02.376Z,998.54
2017-07-25T04:57:02.356Z,998.49
2017-07-25T04:58:02.332Z,998.52
2017-07-25T04:59:02.308Z,998.47
2017-07-25T05:00:02.286Z,998.47
2017-07-25T05:01:02.261Z,998.47
2017-07-25T05:02:02.239Z,998.49
2017-07-25T05:03:02.219Z,998.51
2017-07-25T05:04:02.193Z,998.45
2017-07-25T05:05:02.352Z,998.52
2017-07-25T05:06:02.229Z,998.51
2017-07-25T05:07:02.123Z,998.47
2017-07-25T05:08:02.102Z,998.46
2017-07-25T05:09:02.080Z,998.48
2017-07-25T05:10:02.056Z,998.43
2017-07-25T05:11:02.032Z,998.42
2017-07-25T05:12:02.009Z,998.44
2017-07-25T05:13:01.985Z,998.46
2017-07-25T05:14:01.962Z,998.45
2017-07-25T05:15:01.938Z,998.47
2017-07-25T05:16:01.916Z,998.49
2017-07-25T05:17:01.893Z,998.45
2017-07-25T05:18:01.869Z,998.51
2017-07-25T05:19:01.846Z,998.52
2017-07-25T05:20:01.824Z,998.49
2017-07-25T05:21:01.800Z,998.5
2017-07-25T05:22:01.777Z,998.48
2017-07-25T05:23:01.754Z,998.53
2017-07-25T05:24:01.731Z,998.58
2017-07-25T05:25:01.708Z,998.59
2017-07-25T05:26:01.685Z,998.5
2017-07-25T05:27:01.662Z,998.52
2017-07-25T05:28:01.639Z,998.51
2017-07-25T05:29:01.615Z,998.48
2017-07-25T05:30:01.591Z,998.49
2017-07-25T05:31:01.570Z,998.46
2017-07-25T05:32:01.546Z,998.42
2017-07-25T05:33:01.523Z,998.43
2017-07-25T05:34:01.500Z,998.41
2017-07-25T05:35:01.477Z,998.41
2017-07-25T05:36:01.452Z,998.34
2017-07-25T05:37:01.430Z,998.38
2017-07-25T05:38:01.408Z,998.41
2017-07-25T05:39:01.384Z,998.39
2017-07-25T05:40:01.361Z,998.37
2017-07-25T05:41:01.338Z,998.38
2017-07-25T05:42:01.316Z,998.37
2017-07-25T05:43:01.293Z,998.35
2017-07-25T05:44:01.269Z,998.39
2017-07-25T05:45:01.246Z,998.34
2017-07-25T05:46:01.223Z,998.38
2017-07-25T05:47:01.200Z,998.39
2017-07-25T05:48:01.177Z,998.38
2017-07-25T05:49:01.154Z,998.4
2017-07-25T05:50:01.131Z,998.42
2017-07-25T05:51:01.108Z,998.4
2017-07-25T05:52:01.215Z,998.35
2017-07-25T05:53:01.062Z,998.42
2017-07-25T05:54:01.040Z,998.36
2017-07-25T05:55:01.017Z,998.35
2017-07-25T05:56:00.994Z,998.39
2017-07-25T05:57:00.971Z,998.32
2017-07-25T05:58:00.947Z,998.36
2017-07-25T05:59:00.925Z,998.28
2017-07-25T06:00:00.906Z,998.32
2017-07-25T06:01:00.881Z,998.27
2017-07-25T06:02:00.856Z,998.32
2017-07-25T06:03:00.837Z,998.33
2017-07-25T06:04:00.811Z,998.28
2017-07-25T06:05:00.790Z,998.28
2017-07-25T06:06:00.765Z,998.27
2017-07-25T06:07:00.743Z,998.27
2017-07-25T06:08:00.824Z,998.18
2017-07-25T06:09:00.699Z,998.2
2017-07-25T06:10:00.674Z,998.18
2017-07-25T06:11:00.652Z,998.18
2017-07-25T06:12:00.630Z,998.22
2017-07-25T06:13:00.607Z,998.22
2017-07-25T06:14:00.583Z,998.22
2017-07-25T06:15:00.563Z,998.17
2017-07-25T06:16:00.541Z,998.13
2017-07-25T06:17:00.517Z,998.15
2017-07-25T06:18:00.493Z,998.21
2017-07-25T06:19:00.471Z,998.1
2017-07-25T06:20:00.450Z,998.12
2017-07-25T06:21:00.426Z,998.16
2017-07-25T06:22:00.405Z,998.15
2017-07-25T06:23:00.382Z,998.16
2017-07-25T06:24:00.424Z,998.16
2017-07-25T06:25:00.339Z,998.15
2017-07-25T06:26:00.316Z,998.18
2017-07-25T06:27:00.294Z,998.15
2017-07-25T06:28:00.271Z,998.15
2017-07-25T06:29:00.250Z,998.16
2017-07-25T06:30:00.226Z,998.22
2017-07-25T06:31:00.204Z,998.2
2017-07-25T06:32:00.184Z,998.17
2017-07-25T06:33:00.160Z,998.26
2017-07-25T06:34:00.138Z,998.25
2017-07-25T06:35:00.115Z,998.24
2017-07-25T06:36:00.093Z,998.19
2017-07-25T06:37:00.072Z,998.18
2017-07-25T06:38:00.050Z,998.21
2017-07-25T06:39:00.029Z,998.23
2017-07-25T06:40:00.007Z,998.2
2017-07-25T06:40:59.984Z,998.27
2017-07-25T06:41:59.962Z,998.28
2017-07-25T06:42:59.939Z,998.25
2017-07-25T06:43:59.919Z,998.31
2017-07-25T06:44:59.895Z,998.29
2017-07-25T06:45:59.873Z,998.31
2017-07-25T06:46:59.850Z,998.34
2017-07-25T06:47:59.829Z,998.36
2017-07-25T06:48:59.808Z,998.38
2017-07-25T06:49:59.786Z,998.38
2017-07-25T06:50:59.763Z,998.4
2017-07-25T06:51:59.815Z,998.4
2017-07-25T06:52:59.820Z,998.43
2017-07-25T06:53:59.799Z,998.35
2017-07-25T06:54:59.677Z,998.39
2017-07-25T06:55:59.655Z,998.39
2017-07-25T06:56:59.633Z,998.41
2017-07-25T06:57:59.612Z,998.43
2017-07-25T06:58:59.689Z,998.42
2017-07-25T06:59:59.639Z,998.41
2017-07-25T07:00:59.781Z,998.39
2017-07-25T07:01:59.524Z,998.36
2017-07-25T07:02:59.772Z,998.37
2017-07-25T07:03:59.480Z,998.41
2017-07-25T07:04:59.458Z,998.44
2017-07-25T07:05:59.438Z,998.34
2017-07-25T07:06:59.416Z,998.36
2017-07-25T07:07:59.394Z,998.34
2017-07-25T07:08:59.374Z,998.33
2017-07-25T07:09:59.351Z,998.31
2017-07-25T07:10:59.830Z,998.3
2017-07-25T07:11:59.819Z,998.39
2017-07-25T07:12:59.289Z,998.32
2017-07-25T07:13:59.268Z,998.37
2017-07-25T07:14:59.245Z,998.34
2017-07-25T07:15:59.225Z,998.35
2017-07-25T07:16:59.203Z,998.4
2017-07-25T07:17:59.182Z,998.4
2017-07-25T07:18:59.160Z,998.4
2017-07-25T07:19:59.139Z,998.44
2017-07-25T07:20:59.119Z,998.45
2017-07-25T07:21:59.096Z,998.47
2017-07-25T07:22:59.172Z,998.46
2017-07-25T07:23:59.082Z,998.5
2017-07-25T07:24:59.034Z,998.52
2017-07-25T07:25:59.012Z,998.46
2017-07-25T07:26:58.992Z,998.48
2017-07-25T07:27:58.970Z,998.49
2017-07-25T07:28:58.950Z,998.53
2017-07-25T07:29:58.929Z,998.55
2017-07-25T07:30:58.908Z,998.53
2017-07-25T07:31:58.887Z,998.53
2017-07-25T07:32:59.206Z,998.55
2017-07-25T07:33:58.844Z,998.51
2017-07-25T07:34:58.823Z,998.53
2017-07-25T07:35:58.803Z,998.54
2017-07-25T07:36:58.789Z,998.57
2017-07-25T07:37:58.772Z,998.62
2017-07-25T07:38:58.739Z,998.69
2017-07-25T07:39:58.717Z,998.6
2017-07-25T07:40:58.696Z,998.69
2017-07-25T07:41:58.675Z,998.61
2017-07-25T07:42:58.704Z,998.6
2017-07-25T07:43:58.632Z,998.57
2017-07-25T07:44:58.610Z,998.62
2017-07-25T07:45:58.590Z,998.62
2017-07-25T07:46:58.568Z,998.66
2017-07-25T07:47:58.546Z,998.64
2017-07-25T07:48:58.524Z,998.62
2017-07-25T07:49:58.504Z,998.63
2017-07-25T07:50:58.481Z,998.59
2017-07-25T07:51:58.460Z,998.65
2017-07-25T07:52:58.438Z,998.66
2017-07-25T07:53:58.416Z,998.63
2017-07-25T07:54:58.394Z,998.64
2017-07-25T07:55:58.373Z,998.57
2017-07-25T07:56:58.351Z,998.62
2017-07-25T07:57:58.329Z,998.62
2017-07-25T07:58:58.307Z,998.61
2017-07-25T07:59:58.286Z,998.64
2017-07-25T08:00:58.264Z,998.69
2017-07-25T08:01:58.241Z,998.6
2017-07-25T08:02:58.270Z,998.61
2017-07-25T08:03:58.198Z,998.6
2017-07-25T08:04:58.390Z,998.56
2017-07-25T08:05:58.153Z,998.62
2017-07-25T08:06:58.131Z,998.62
2017-07-25T08:07:58.110Z,998.67
2017-07-25T08:08:58.088Z,998.66
2017-07-25T08:09:58.068Z,998.65
2017-07-25T08:10:58.044Z,998.64
2017-07-25T08:11:58.160Z,998.62
2017-07-25T08:12:58.011Z,998.67
2017-07-25T08:13:57.981Z,998.61
2017-07-25T08:14:57.957Z,998.6
2017-07-25T08:15:58.056Z,998.62
2017-07-25T08:16:57.918Z,998.63
2017-07-25T08:17:57.905Z,998.63
2017-07-25T08:18:57.873Z,998.61
2017-07-25T08:19:57.847Z,998.59
2017-07-25T08:20:57.944Z,998.57
2017-07-25T08:21:57.877Z,998.59
2017-07-25T08:22:58.030Z,998.56
2017-07-25T08:23:57.759Z,998.57
2017-07-25T08:24:57.738Z,998.57
2017-07-25T08:25:57.716Z,998.59
2017-07-25T08:26:57.695Z,998.6
2017-07-25T08:27:57.672Z,998.55
2017-07-25T08:28:57.653Z,998.51
2017-07-25T08:29:57.631Z,998.55
2017-07-25T08:30:57.608Z,998.54
2017-07-25T08:31:57.586Z,998.53
2017-07-25T08:32:57.564Z,998.63
2017-07-25T08:33:57.542Z,998.6
2017-07-25T08:34:57.521Z,998.59
2017-07-25T08:35:57.510Z,998.55
2017-07-25T08:36:57.479Z,998.62
2017-07-25T08:37:57.457Z,998.55
2017-07-25T08:38:57.437Z,998.48
2017-07-25T08:39:57.415Z,998.5
2017-07-25T08:40:57.394Z,998.48
2017-07-25T08:41:57.373Z,998.51
2017-07-25T08:42:57.353Z,998.54
2017-07-25T08:43:57.333Z,998.5
2017-07-25T08:44:57.311Z,998.53
2017-07-25T08:45:57.291Z,998.48
2017-07-25T08:46:57.270Z,998.45
2017-07-25T08:47:57.250Z,998.46
2017-07-25T08:48:57.229Z,998.5
2017-07-25T08:49:57.209Z,998.48
2017-07-25T08:50:57.188Z,998.44
2017-07-25T08:51:57.183Z,998.44
2017-07-25T08:52:57.150Z,998.45
2017-07-25T08:53:57.129Z,998.5
2017-07-25T08:54:57.109Z,998.53
2017-07-25T08:55:57.089Z,998.52
2017-07-25T08:56:57.069Z,998.53
2017-07-25T08:57:57.049Z,998.49
2017-07-25T08:58:57.031Z,998.49
2017-07-25T08:59:57.012Z,998.63
2017-07-25T09:00:57.182Z,998.5
2017-07-25T09:01:56.972Z,998.49
2017-07-25T09:02:56.954Z,998.53
2017-07-25T09:03:56.938Z,998.48
2017-07-25T09:04:56.913Z,998.47
2017-07-25T09:05:56.895Z,998.52
2017-07-25T09:06:56.876Z,998.45
2017-07-25T09:07:56.856Z,998.45
2017-07-25T09:08:56.837Z,998.48
2017-07-25T09:09:56.938Z,998.46
2017-07-25T09:10:56.940Z,998.46
2017-07-25T09:11:57.087Z,998.52
2017-07-25T09:12:56.761Z,998.44
2017-07-25T09:13:56.745Z,998.47
2017-07-25T09:14:56.723Z,998.44
2017-07-25T09:15:56.708Z,998.42
2017-07-25T09:16:56.685Z,998.44
2017-07-25T09:17:56.665Z,998.39
2017-07-25T09:18:56.644Z,998.4
2017-07-25T09:19:56.626Z,998.38
2017-07-25T09:20:56.607Z,998.37
2017-07-25T09:21:56.588Z,998.3
2017-07-25T09:22:56.843Z,998.3
2017-07-25T09:23:56.551Z,998.3
2017-07-25T09:24:56.532Z,998.3
2017-07-25T09:25:56.513Z,998.32
2017-07-25T09:26:56.568Z,998.31
2017-07-25T09:27:56.476Z,998.31
2017-07-25T09:28:56.456Z,998.34
2017-07-25T09:29:56.436Z,998.31
2017-07-25T09:30:56.419Z,998.27
2017-07-25T09:31:56.401Z,998.36
2017-07-25T09:32:56.382Z,998.29
2017-07-25T09:33:56.363Z,998.3
2017-07-25T09:34:56.345Z,998.33
2017-07-25T09:35:56.539Z,998.27
2017-07-25T09:36:56.310Z,998.28
2017-07-25T09:37:56.291Z,998.28
2017-07-25T09:38:56.273Z,998.25
2017-07-25T09:39:56.256Z,998.23
2017-07-25T09:40:56.237Z,998.21
2017-07-25T09:41:56.217Z,998.18
2017-07-25T09:42:56.200Z,998.17
2017-07-25T09:43:56.187Z,998.15
2017-07-25T09:44:56.165Z,998.16
2017-07-25T09:45:56.146Z,998.11
2017-07-25T09:46:56.130Z,998.13
2017-07-25T09:47:56.113Z,998.08
2017-07-25T09:48:56.133Z,998.08
2017-07-25T09:49:56.080Z,998.06
2017-07-25T09:50:56.062Z,998.01
2017-07-25T09:51:56.044Z,997.97
2017-07-25T09:52:56.028Z,997.99
2017-07-25T09:53:56.010Z,997.94
2017-07-25T09:54:55.993Z,997.98
2017-07-25T09:55:55.975Z,998.02
2017-07-25T09:56:55.957Z,998.07
2017-07-25T09:57:55.938Z,997.94
2017-07-25T09:58:55.920Z,998
2017-07-25T09:59:55.905Z,997.97
2017-07-25T10:00:55.888Z,997.95
2017-07-25T10:01:55.868Z,997.96
2017-07-25T10:02:55.851Z,997.89
2017-07-25T10:03:55.833Z,997.94
2017-07-25T10:04:55.816Z,997.96
2017-07-25T10:05:55.800Z,997.9
2017-07-25T10:06:55.781Z,997.86
2017-07-25T10:07:55.764Z,997.86
2017-07-25T10:08:55.768Z,997.88
2017-07-25T10:09:55.728Z,997.92
2017-07-25T10:10:55.711Z,997.84
2017-07-25T10:11:55.693Z,997.91
2017-07-25T10:12:55.677Z,997.94
2017-07-25T10:13:55.657Z,997.96
2017-07-25T10:14:55.639Z,997.87
2017-07-25T10:15:55.622Z,997.9
2017-07-25T10:16:55.619Z,997.99
2017-07-25T10:17:55.836Z,997.9
2017-07-25T10:18:55.570Z,997.89
2017-07-25T10:19:55.552Z,997.89
2017-07-25T10:20:55.537Z,997.85
2017-07-25T10:21:55.516Z,997.83
2017-07-25T10:22:55.497Z,997.87
2017-07-25T10:23:55.479Z,997.81
2017-07-25T10:24:55.461Z,997.84
2017-07-25T10:25:55.446Z,997.81
2017-07-25T10:26:55.716Z,997.81
2017-07-25T10:27:55.408Z,997.82
2017-07-25T10:28:55.390Z,997.81
2017-07-25T10:29:55.369Z,997.8
2017-07-25T10:30:55.369Z,997.78
2017-07-25T10:31:55.330Z,997.75
2017-07-25T10:32:55.311Z,997.72
2017-07-25T10:33:55.295Z,997.82
2017-07-25T10:34:55.293Z,997.75
2017-07-25T10:35:55.258Z,997.68
2017-07-25T10:36:55.236Z,997.71
2017-07-25T10:37:55.317Z,997.74
2017-07-25T10:38:55.201Z,997.66
2017-07-25T10:39:55.183Z,997.79
2017-07-25T10:40:55.162Z,997.67
2017-07-25T10:41:55.141Z,997.65
2017-07-25T10:42:55.122Z,997.66
2017-07-25T10:43:55.103Z,997.65
2017-07-25T10:44:55.083Z,997.61
2017-07-25T10:45:55.066Z,997.65
2017-07-25T10:46:55.047Z,997.63
2017-07-25T10:47:55.028Z,997.6
2017-07-25T10:48:55.060Z,997.57
2017-07-25T10:49:54.993Z,997.54
2017-07-25T10:50:54.972Z,997.54
2017-07-25T10:51:54.954Z,997.54
2017-07-25T10:52:55.171Z,997.47
2017-07-25T10:53:54.916Z,997.52
2017-07-25T10:54:55.210Z,997.5
2017-07-25T10:55:54.878Z,997.5
2017-07-25T10:56:54.860Z,997.46
2017-07-25T10:57:54.840Z,997.45
2017-07-25T10:58:54.822Z,997.54
2017-07-25T10:59:54.804Z,997.39
2017-07-25T11:00:55.064Z,997.41
2017-07-25T11:01:54.765Z,997.45
2017-07-25T11:02:54.849Z,997.43
2017-07-25T11:03:54.727Z,997.4
2017-07-25T11:04:54.706Z,997.4
2017-07-25T11:05:54.687Z,997.39
2017-07-25T11:06:54.668Z,997.38
2017-07-25T11:07:54.648Z,997.39
2017-07-25T11:08:54.630Z,997.38
2017-07-25T11:09:54.707Z,997.36
2017-07-25T11:10:54.607Z,997.3
2017-07-25T11:11:54.567Z,997.31
2017-07-25T11:12:54.546Z,997.3
2017-07-25T11:13:54.528Z,997.23
2017-07-25T11:14:54.507Z,997.25
2017-07-25T11:15:54.487Z,997.22
2017-07-25T11:16:54.466Z,997.2
2017-07-25T11:17:54.446Z,997.21
2017-07-25T11:18:54.426Z,997.25
2017-07-25T11:19:54.406Z,997.27
2017-07-25T11:20:54.388Z,997.28
2017-07-25T11:21:54.376Z,997.24
2017-07-25T11:22:54.348Z,997.24
2017-07-25T11:23:54.327Z,997.27
2017-07-25T11:24:54.461Z,997.26
2017-07-25T11:25:54.289Z,997.27
2017-07-25T11:26:54.269Z,997.21
2017-07-25T11:27:54.405Z,997.26
2017-07-25T11:28:54.231Z,997.21
2017-07-25T11:29:54.212Z,997.21
2017-07-25T11:30:54.189Z,997.22
2017-07-25T11:31:54.172Z,997.23
2017-07-25T11:32:54.154Z,997.22
2017-07-25T11:33:54.134Z,997.21
2017-07-25T11:34:54.115Z,997.19
2017-07-25T11:35:54.095Z,997.21
2017-07-25T11:36:54.076Z,997.23
2017-07-25T11:37:54.058Z,997.2
2017-07-25T11:38:54.039Z,997.15
2017-07-25T11:39:54.020Z,997.24
2017-07-25T11:40:54.001Z,997.22
2017-07-25T11:41:54.114Z,997.21
2017-07-25T11:42:53.962Z,997.16
2017-07-25T11:43:53.983Z,997.14
2017-07-25T11:44:53.922Z,997.21
2017-07-25T11:45:54.044Z,997.24
2017-07-25T11:46:53.884Z,997.2
2017-07-25T11:47:53.866Z,997.16
2017-07-25T11:48:53.846Z,997.14
2017-07-25T11:49:54.068Z,997.19
2017-07-25T11:50:53.809Z,997.18
2017-07-25T11:51:53.788Z,997.18
2017-07-25T11:52:53.768Z,997.16
2017-07-25T11:53:54.127Z,997.17
2017-07-25T11:54:53.731Z,997.15
2017-07-25T11:55:53.710Z,997.21
2017-07-25T11:56:53.691Z,997.19
2017-07-25T11:57:53.672Z,997.18
2017-07-25T11:58:53.653Z,997.18
2017-07-25T11:59:53.632Z,997.17
2017-07-25T12:00:53.613Z,997.18
2017-07-25T12:01:53.594Z,997.14
2017-07-25T12:02:53.574Z,997.17
2017-07-25T12:03:53.556Z,997.17
2017-07-25T12:04:53.536Z,997.1
2017-07-25T12:05:53.518Z,997.19
2017-07-25T12:06:53.498Z,997.18
2017-07-25T12:07:53.528Z,997.16
2017-07-25T12:08:53.459Z,997.2
2017-07-25T12:09:53.442Z,997.19
2017-07-25T12:10:53.421Z,997.23
2017-07-25T12:11:53.401Z,997.21
2017-07-25T12:12:53.381Z,997.16
2017-07-25T12:13:53.363Z,997.13
2017-07-25T12:14:53.343Z,997.14
2017-07-25T12:15:53.408Z,997.11
2017-07-25T12:16:53.578Z,997.08
2017-07-25T12:17:53.377Z,997.14
2017-07-25T12:18:53.265Z,997.1
2017-07-25T12:19:53.255Z,997.06
2017-07-25T12:20:53.226Z,997.12
2017-07-25T12:21:53.207Z,997.11
2017-07-25T12:22:53.187Z,997.12
2017-07-25T12:23:53.173Z,997.05
2017-07-25T12:24:53.151Z,997.08
2017-07-25T12:25:53.128Z,997.04
2017-07-25T12:26:53.109Z,997.03
2017-07-25T12:27:53.088Z,996.98
2017-07-25T12:28:53.068Z,997.05
2017-07-25T12:29:53.175Z,997.01
2017-07-25T12:30:53.029Z,997.03